sensor_id;sensor_type;location;lat;lon;timestamp;pressure;altitude;pressure_sealevel;temperature;humidity
29169;BME280;16219;42.864;23.360;2022-11-14T00:01:29;96992.56;;;4.75;100.00
29169;BME280;16219;42.864;23.360;2022-11-14T00:04:17;96993.06;;;4.72;100.00
29169;BME280;16219;42.864;23.360;2022-11-14T00:07:02;96987.94;;;4.82;100.00
29169;BME280;16219;42.864;23.360;2022-11-14T00:09:48;96981.63;;;4.78;100.00
29169;BME280;16219;42.864;23.360;2022-11-14T00:12:34;96995.41;;;4.95;100.00
29169;BME280;16219;42.864;23.360;2022-11-14T00:15:20;96992.28;;;4.93;100.00
29169;BME280;16219;42.864;23.360;2022-11-14T00:18:06;96991.97;;;4.90;100.00
29169;BME280;16219;42.864;23.360;2022-11-14T00:20:53;96985.44;;;4.92;100.00
29169;BME280;16219;42.864;23.360;2022-11-14T00:23:38;96990.88;;;4.86;100.00
29169;BME280;16219;42.864;23.360;2022-11-14T00:26:24;96999.38;;;4.76;100.00
29169;BME280;16219;42.864;23.360;2022-11-14T00:29:10;96982.59;;;4.72;100.00
29169;BME280;16219;42.864;23.360;2022-11-14T00:31:56;96981.88;;;4.76;100.00
29169;BME280;16219;42.864;23.360;2022-11-14T00:34:42;96983.97;;;4.80;100.00
29169;BME280;16219;42.864;23.360;2022-11-14T00:37:29;96981.63;;;4.78;100.00
29169;BME280;16219;42.864;23.360;2022-11-14T00:40:15;96988.31;;;4.69;100.00
29169;BME280;16219;42.864;23.360;2022-11-14T00:43:01;96981.50;;;4.68;100.00
29169;BME280;16219;42.864;23.360;2022-11-14T00:45:47;96988.63;;;4.72;100.00
29169;BME280;16219;42.864;23.360;2022-11-14T00:48:32;96988.66;;;4.78;100.00
29169;BME280;16219;42.864;23.360;2022-11-14T00:51:18;96984.72;;;4.75;100.00
29169;BME280;16219;42.864;23.360;2022-11-14T00:54:05;96982.66;;;4.77;100.00
29169;BME280;16219;42.864;23.360;2022-11-14T00:56:51;96986.41;;;4.86;100.00
29169;BME280;16219;42.864;23.360;2022-11-14T00:59:36;96983.03;;;4.86;100.00
29169;BME280;16219;42.864;23.360;2022-11-14T01:02:23;96987.41;;;4.80;100.00
29169;BME280;16219;42.864;23.360;2022-11-14T01:05:08;96985.81;;;4.79;100.00
29169;BME280;16219;42.864;23.360;2022-11-14T01:07:55;96986.06;;;4.78;100.00
29169;BME280;16219;42.864;23.360;2022-11-14T01:10:45;96987.63;;;4.79;100.00
29169;BME280;16219;42.864;23.360;2022-11-14T01:13:31;96989.19;;;4.58;100.00
29169;BME280;16219;42.864;23.360;2022-11-14T01:16:17;96983.91;;;4.53;100.00
29169;BME280;16219;42.864;23.360;2022-11-14T01:19:03;96982.66;;;4.55;100.00
29169;BME280;16219;42.864;23.360;2022-11-14T01:21:49;96980.47;;;4.47;100.00
29169;BME280;16219;42.864;23.360;2022-11-14T01:24:34;96983.84;;;4.47;100.00
29169;BME280;16219;42.864;23.360;2022-11-14T01:27:22;96985.91;;;4.45;100.00
29169;BME280;16219;42.864;23.360;2022-11-14T01:30:08;96959.09;;;4.33;100.00
29169;BME280;16219;42.864;23.360;2022-11-14T01:32:53;96978.56;;;4.42;100.00
29169;BME280;16219;42.864;23.360;2022-11-14T01:35:39;96973.50;;;4.36;100.00
29169;BME280;16219;42.864;23.360;2022-11-14T01:38:25;96971.22;;;4.22;100.00
29169;BME280;16219;42.864;23.360;2022-11-14T01:41:12;96962.13;;;4.25;100.00
29169;BME280;16219;42.864;23.360;2022-11-14T01:44:00;96953.75;;;4.23;100.00
29169;BME280;16219;42.864;23.360;2022-11-14T01:46:48;96949.50;;;4.17;100.00
29169;BME280;16219;42.864;23.360;2022-11-14T01:49:42;96944.34;;;4.05;100.00
29169;BME280;16219;42.864;23.360;2022-11-14T01:52:33;96938.81;;;4.01;100.00
29169;BME280;16219;42.864;23.360;2022-11-14T01:55:19;96939.91;;;4.06;100.00
29169;BME280;16219;42.864;23.360;2022-11-14T01:58:05;96931.13;;;4.12;100.00
29169;BME280;16219;42.864;23.360;2022-11-14T02:00:52;96935.97;;;4.03;100.00
29169;BME280;16219;42.864;23.360;2022-11-14T02:03:40;96928.00;;;3.93;100.00
29169;BME280;16219;42.864;23.360;2022-11-14T02:06:29;96926.63;;;3.90;100.00
29169;BME280;16219;42.864;23.360;2022-11-14T02:09:15;96929.63;;;3.99;100.00
29169;BME280;16219;42.864;23.360;2022-11-14T02:12:02;96937.31;;;4.06;100.00
29169;BME280;16219;42.864;23.360;2022-11-14T02:14:51;96930.00;;;4.08;100.00
29169;BME280;16219;42.864;23.360;2022-11-14T02:17:41;96932.72;;;4.13;100.00
29169;BME280;16219;42.864;23.360;2022-11-14T02:20:35;96924.72;;;4.03;100.00
29169;BME280;16219;42.864;23.360;2022-11-14T02:23:25;96925.00;;;3.84;100.00
29169;BME280;16219;42.864;23.360;2022-11-14T02:26:11;96922.78;;;3.93;100.00
29169;BME280;16219;42.864;23.360;2022-11-14T02:28:56;96920.47;;;3.96;100.00
29169;BME280;16219;42.864;23.360;2022-11-14T02:31:42;96924.34;;;3.94;100.00
29169;BME280;16219;42.864;23.360;2022-11-14T02:34:28;96924.13;;;3.95;100.00
29169;BME280;16219;42.864;23.360;2022-11-14T02:37:15;96924.13;;;3.95;100.00
29169;BME280;16219;42.864;23.360;2022-11-14T02:40:01;96921.41;;;4.07;100.00
29169;BME280;16219;42.864;23.360;2022-11-14T02:42:47;96931.22;;;4.17;100.00
29169;BME280;16219;42.864;23.360;2022-11-14T02:45:33;96927.63;;;4.23;100.00
29169;BME280;16219;42.864;23.360;2022-11-14T02:48:19;96917.44;;;4.21;100.00
29169;BME280;16219;42.864;23.360;2022-11-14T02:51:04;96919.38;;;4.31;100.00
29169;BME280;16219;42.864;23.360;2022-11-14T02:53:51;96917.38;;;4.38;100.00
29169;BME280;16219;42.864;23.360;2022-11-14T02:56:37;96926.84;;;4.44;100.00
29169;BME280;16219;42.864;23.360;2022-11-14T02:59:23;96922.91;;;4.42;100.00
29169;BME280;16219;42.864;23.360;2022-11-14T03:02:08;96916.34;;;4.39;100.00
29169;BME280;16219;42.864;23.360;2022-11-14T03:04:54;96915.00;;;4.37;100.00
29169;BME280;16219;42.864;23.360;2022-11-14T03:07:40;96912.06;;;4.33;100.00
29169;BME280;16219;42.864;23.360;2022-11-14T03:10:27;96907.88;;;4.32;100.00
29169;BME280;16219;42.864;23.360;2022-11-14T03:13:13;96909.44;;;4.33;100.00
29169;BME280;16219;42.864;23.360;2022-11-14T03:16:04;96906.38;;;4.36;100.00
29169;BME280;16219;42.864;23.360;2022-11-14T03:18:50;96902.25;;;4.40;100.00
29169;BME280;16219;42.864;23.360;2022-11-14T03:21:35;96900.47;;;4.46;100.00
29169;BME280;16219;42.864;23.360;2022-11-14T03:24:21;96902.06;;;4.47;100.00
29169;BME280;16219;42.864;23.360;2022-11-14T03:27:08;96900.56;;;4.29;100.00
29169;BME280;16219;42.864;23.360;2022-11-14T03:29:54;96903.81;;;4.41;100.00
29169;BME280;16219;42.864;23.360;2022-11-14T03:32:39;96903.59;;;4.43;100.00
29169;BME280;16219;42.864;23.360;2022-11-14T03:35:27;96903.03;;;4.41;100.00
29169;BME280;16219;42.864;23.360;2022-11-14T03:38:12;96901.75;;;4.43;100.00
29169;BME280;16219;42.864;23.360;2022-11-14T03:40:59;96899.69;;;4.45;100.00
29169;BME280;16219;42.864;23.360;2022-11-14T03:43:46;96907.78;;;4.44;100.00
29169;BME280;16219;42.864;23.360;2022-11-14T03:46:32;96905.56;;;4.36;100.00
29169;BME280;16219;42.864;23.360;2022-11-14T03:49:17;96907.34;;;4.30;100.00
29169;BME280;16219;42.864;23.360;2022-11-14T03:52:03;96907.25;;;4.03;100.00
29169;BME280;16219;42.864;23.360;2022-11-14T03:54:49;96898.91;;;3.84;100.00
29169;BME280;16219;42.864;23.360;2022-11-14T03:57:34;96907.75;;;3.83;100.00
29169;BME280;16219;42.864;23.360;2022-11-14T04:00:22;96903.97;;;3.74;100.00
29169;BME280;16219;42.864;23.360;2022-11-14T04:03:07;96906.81;;;3.72;100.00
29169;BME280;16219;42.864;23.360;2022-11-14T04:05:53;96899.69;;;3.68;100.00
29169;BME280;16219;42.864;23.360;2022-11-14T04:08:39;96896.94;;;3.58;100.00
29169;BME280;16219;42.864;23.360;2022-11-14T04:11:25;96896.78;;;3.47;100.00
29169;BME280;16219;42.864;23.360;2022-11-14T04:14:10;96881.50;;;3.39;100.00
29169;BME280;16219;42.864;23.360;2022-11-14T04:16:58;96883.19;;;3.45;100.00
29169;BME280;16219;42.864;23.360;2022-11-14T04:19:43;96881.69;;;3.49;100.00
29169;BME280;16219;42.864;23.360;2022-11-14T04:22:29;96875.50;;;3.56;100.00
29169;BME280;16219;42.864;23.360;2022-11-14T04:25:15;96876.06;;;3.58;100.00
29169;BME280;16219;42.864;23.360;2022-11-14T04:28:01;96880.50;;;3.74;100.00
29169;BME280;16219;42.864;23.360;2022-11-14T04:30:46;96884.34;;;3.88;100.00
29169;BME280;16219;42.864;23.360;2022-11-14T04:33:33;96874.44;;;3.73;100.00
29169;BME280;16219;42.864;23.360;2022-11-14T04:36:19;96875.81;;;3.59;100.00
29169;BME280;16219;42.864;23.360;2022-11-14T04:39:05;96885.94;;;3.56;100.00
29169;BME280;16219;42.864;23.360;2022-11-14T04:41:50;96876.63;;;3.60;100.00
29169;BME280;16219;42.864;23.360;2022-11-14T04:44:36;96875.03;;;3.59;100.00
29169;BME280;16219;42.864;23.360;2022-11-14T04:47:22;96875.28;;;3.74;100.00
29169;BME280;16219;42.864;23.360;2022-11-14T04:50:09;96883.78;;;3.86;100.00
29169;BME280;16219;42.864;23.360;2022-11-14T04:52:55;96889.53;;;4.05;100.00
29169;BME280;16219;42.864;23.360;2022-11-14T04:55:43;96890.38;;;4.11;100.00
29169;BME280;16219;42.864;23.360;2022-11-14T04:58:29;96892.06;;;4.00;100.00
29169;BME280;16219;42.864;23.360;2022-11-14T05:01:15;96897.63;;;3.87;100.00
29169;BME280;16219;42.864;23.360;2022-11-14T05:04:00;96897.88;;;4.07;100.00
29169;BME280;16219;42.864;23.360;2022-11-14T05:06:48;96903.91;;;4.08;100.00
29169;BME280;16219;42.864;23.360;2022-11-14T05:09:34;96910.22;;;4.12;100.00
29169;BME280;16219;42.864;23.360;2022-11-14T05:12:20;96904.06;;;4.18;100.00
29169;BME280;16219;42.864;23.360;2022-11-14T05:15:06;96899.38;;;4.20;100.00
29169;BME280;16219;42.864;23.360;2022-11-14T05:17:53;96897.06;;;4.23;100.00
29169;BME280;16219;42.864;23.360;2022-11-14T05:20:38;96895.00;;;4.25;100.00
29169;BME280;16219;42.864;23.360;2022-11-14T05:23:26;96889.53;;;4.27;100.00
29169;BME280;16219;42.864;23.360;2022-11-14T05:26:14;96898.16;;;4.28;100.00
29169;BME280;16219;42.864;23.360;2022-11-14T05:29:00;96891.13;;;4.28;100.00
29169;BME280;16219;42.864;23.360;2022-11-14T05:31:45;96892.72;;;4.29;100.00
29169;BME280;16219;42.864;23.360;2022-11-14T05:34:31;96897.38;;;4.27;100.00
29169;BME280;16219;42.864;23.360;2022-11-14T05:37:17;96893.72;;;4.28;100.00
29169;BME280;16219;42.864;23.360;2022-11-14T05:40:05;96899.19;;;4.05;100.00
29169;BME280;16219;42.864;23.360;2022-11-14T05:42:53;96892.53;;;3.97;100.00
29169;BME280;16219;42.864;23.360;2022-11-14T05:45:39;96895.59;;;4.11;100.00
29169;BME280;16219;42.864;23.360;2022-11-14T05:48:25;96894.34;;;4.13;100.00
29169;BME280;16219;42.864;23.360;2022-11-14T05:51:12;96898.84;;;4.18;100.00
29169;BME280;16219;42.864;23.360;2022-11-14T05:53:57;96905.47;;;4.25;100.00
29169;BME280;16219;42.864;23.360;2022-11-14T05:56:45;96906.47;;;4.24;100.00
29169;BME280;16219;42.864;23.360;2022-11-14T05:59:30;96920.66;;;4.12;100.00
29169;BME280;16219;42.864;23.360;2022-11-14T06:02:16;96909.84;;;4.03;100.00
29169;BME280;16219;42.864;23.360;2022-11-14T06:05:02;96916.56;;;3.99;100.00
29169;BME280;16219;42.864;23.360;2022-11-14T06:07:48;96915.00;;;3.98;100.00
29169;BME280;16219;42.864;23.360;2022-11-14T06:10:39;96913.75;;;4.00;100.00
29169;BME280;16219;42.864;23.360;2022-11-14T06:13:26;96921.09;;;4.04;100.00
29169;BME280;16219;42.864;23.360;2022-11-14T06:16:12;96922.13;;;4.03;100.00
29169;BME280;16219;42.864;23.360;2022-11-14T06:18:59;96922.69;;;4.05;100.00
29169;BME280;16219;42.864;23.360;2022-11-14T06:21:44;96920.59;;;4.07;100.00
29169;BME280;16219;42.864;23.360;2022-11-14T06:24:30;96924.78;;;4.08;100.00
29169;BME280;16219;42.864;23.360;2022-11-14T06:27:16;96927.59;;;4.01;100.00
29169;BME280;16219;42.864;23.360;2022-11-14T06:30:04;96925.34;;;4.10;100.00
29169;BME280;16219;42.864;23.360;2022-11-14T06:32:55;96918.25;;;4.05;100.00
29169;BME280;16219;42.864;23.360;2022-11-14T06:35:41;96930.66;;;3.98;100.00
29169;BME280;16219;42.864;23.360;2022-11-14T06:38:26;96927.66;;;4.06;100.00
29169;BME280;16219;42.864;23.360;2022-11-14T06:41:13;96924.47;;;4.21;100.00
29169;BME280;16219;42.864;23.360;2022-11-14T06:44:00;96927.16;;;4.26;100.00
29169;BME280;16219;42.864;23.360;2022-11-14T06:46:47;96930.59;;;4.32;100.00
29169;BME280;16219;42.864;23.360;2022-11-14T06:49:32;96921.31;;;4.41;100.00
29169;BME280;16219;42.864;23.360;2022-11-14T06:52:18;96920.59;;;4.45;100.00
29169;BME280;16219;42.864;23.360;2022-11-14T06:55:05;96922.28;;;4.57;100.00
29169;BME280;16219;42.864;23.360;2022-11-14T06:57:52;96920.22;;;4.59;100.00
29169;BME280;16219;42.864;23.360;2022-11-14T07:00:38;96905.44;;;4.69;100.00
29169;BME280;16219;42.864;23.360;2022-11-14T07:03:25;96908.41;;;4.78;100.00
29169;BME280;16219;42.864;23.360;2022-11-14T07:06:12;96910.84;;;4.85;100.00
29169;BME280;16219;42.864;23.360;2022-11-14T07:08:58;96900.97;;;4.92;100.00
29169;BME280;16219;42.864;23.360;2022-11-14T07:11:43;96903.28;;;4.88;100.00
29169;BME280;16219;42.864;23.360;2022-11-14T07:14:30;96894.09;;;4.81;100.00
29169;BME280;16219;42.864;23.360;2022-11-14T07:17:16;96906.13;;;4.60;100.00
29169;BME280;16219;42.864;23.360;2022-11-14T07:20:04;96903.56;;;4.65;100.00
29169;BME280;16219;42.864;23.360;2022-11-14T07:22:50;96896.34;;;4.50;100.00
29169;BME280;16219;42.864;23.360;2022-11-14T07:25:35;96907.09;;;4.54;100.00
29169;BME280;16219;42.864;23.360;2022-11-14T07:28:21;96897.63;;;4.47;100.00
29169;BME280;16219;42.864;23.360;2022-11-14T07:31:08;96896.63;;;4.54;100.00
29169;BME280;16219;42.864;23.360;2022-11-14T07:33:55;96903.88;;;4.68;100.00
29169;BME280;16219;42.864;23.360;2022-11-14T07:36:43;96901.06;;;4.75;100.00
29169;BME280;16219;42.864;23.360;2022-11-14T07:39:28;96901.00;;;4.70;100.00
29169;BME280;16219;42.864;23.360;2022-11-14T07:42:14;96895.31;;;4.73;100.00
29169;BME280;16219;42.864;23.360;2022-11-14T07:45:00;96894.91;;;4.86;100.00
29169;BME280;16219;42.864;23.360;2022-11-14T07:47:45;96897.53;;;4.86;100.00
29169;BME280;16219;42.864;23.360;2022-11-14T07:50:31;96888.19;;;4.95;100.00
29169;BME280;16219;42.864;23.360;2022-11-14T07:53:18;96888.75;;;4.97;100.00
29169;BME280;16219;42.864;23.360;2022-11-14T07:56:05;96886.66;;;4.99;100.00
29169;BME280;16219;42.864;23.360;2022-11-14T07:58:52;96885.63;;;5.00;100.00
29169;BME280;16219;42.864;23.360;2022-11-14T08:01:38;96876.66;;;5.18;100.00
29169;BME280;16219;42.864;23.360;2022-11-14T08:04:24;96880.97;;;5.35;100.00
29169;BME280;16219;42.864;23.360;2022-11-14T08:07:10;96873.91;;;5.35;100.00
29169;BME280;16219;42.864;23.360;2022-11-14T08:09:57;96872.88;;;5.36;100.00
29169;BME280;16219;42.864;23.360;2022-11-14T08:12:42;96879.81;;;5.53;100.00
29169;BME280;16219;42.864;23.360;2022-11-14T08:15:28;96871.66;;;5.49;100.00
29169;BME280;16219;42.864;23.360;2022-11-14T08:18:13;96880.88;;;5.57;100.00
29169;BME280;16219;42.864;23.360;2022-11-14T08:21:02;96875.53;;;5.41;100.00
29169;BME280;16219;42.864;23.360;2022-11-14T08:23:48;96878.47;;;5.50;100.00
29169;BME280;16219;42.864;23.360;2022-11-14T08:26:35;96881.44;;;5.64;100.00
29169;BME280;16219;42.864;23.360;2022-11-14T08:29:22;96883.00;;;5.65;100.00
29169;BME280;16219;42.864;23.360;2022-11-14T08:32:09;96877.84;;;5.70;100.00
29169;BME280;16219;42.864;23.360;2022-11-14T08:34:54;96876.31;;;5.79;100.00
29169;BME280;16219;42.864;23.360;2022-11-14T08:37:40;96868.50;;;5.84;100.00
29169;BME280;16219;42.864;23.360;2022-11-14T08:40:27;96875.41;;;5.95;100.00
29169;BME280;16219;42.864;23.360;2022-11-14T08:43:14;96869.16;;;6.07;100.00
29169;BME280;16219;42.864;23.360;2022-11-14T08:46:01;96868.41;;;6.11;100.00
29169;BME280;16219;42.864;23.360;2022-11-14T08:48:47;96871.09;;;6.21;100.00
29169;BME280;16219;42.864;23.360;2022-11-14T08:51:32;96871.31;;;6.20;100.00
29169;BME280;16219;42.864;23.360;2022-11-14T08:54:18;96870.59;;;6.24;100.00
29169;BME280;16219;42.864;23.360;2022-11-14T08:57:04;96858.50;;;6.29;100.00
29169;BME280;16219;42.864;23.360;2022-11-14T08:59:51;96854.31;;;6.28;100.00
29169;BME280;16219;42.864;23.360;2022-11-14T09:02:38;96853.06;;;6.45;100.00
29169;BME280;16219;42.864;23.360;2022-11-14T09:05:24;96846.53;;;6.48;100.00
29169;BME280;16219;42.864;23.360;2022-11-14T09:08:10;96846.59;;;6.68;100.00
29169;BME280;16219;42.864;23.360;2022-11-14T09:10:59;96838.47;;;6.75;100.00
29169;BME280;16219;42.864;23.360;2022-11-14T09:13:45;96834.28;;;6.74;100.00
29169;BME280;16219;42.864;23.360;2022-11-14T09:16:32;96837.72;;;6.85;100.00
29169;BME280;16219;42.864;23.360;2022-11-14T09:19:17;96834.03;;;6.96;100.00
29169;BME280;16219;42.864;23.360;2022-11-14T09:22:03;96834.31;;;6.94;100.00
29169;BME280;16219;42.864;23.360;2022-11-14T09:24:49;96827.25;;;7.10;100.00
29169;BME280;16219;42.864;23.360;2022-11-14T09:27:35;96814.38;;;7.09;100.00
29169;BME280;16219;42.864;23.360;2022-11-14T09:30:23;96830.66;;;7.31;100.00
29169;BME280;16219;42.864;23.360;2022-11-14T09:33:11;96826.44;;;7.30;100.00
29169;BME280;16219;42.864;23.360;2022-11-14T09:35:56;96826.97;;;7.37;100.00
29169;BME280;16219;42.864;23.360;2022-11-14T09:38:42;96821.22;;;7.40;100.00
29169;BME280;16219;42.864;23.360;2022-11-14T09:41:39;96812.78;;;7.38;100.00
29169;BME280;16219;42.864;23.360;2022-11-14T09:44:47;96816.47;;;7.37;100.00
29169;BME280;16219;42.864;23.360;2022-11-14T09:47:39;96815.97;;;7.40;100.00
29169;BME280;16219;42.864;23.360;2022-11-14T09:50:32;96809.66;;;7.31;100.00
29169;BME280;16219;42.864;23.360;2022-11-14T09:53:24;96798.63;;;7.29;100.00
29169;BME280;16219;42.864;23.360;2022-11-14T09:56:13;96801.25;;;7.44;100.00
29169;BME280;16219;42.864;23.360;2022-11-14T09:59:01;96804.41;;;7.41;100.00
29169;BME280;16219;42.864;23.360;2022-11-14T10:01:53;96794.94;;;7.61;100.00
29169;BME280;16219;42.864;23.360;2022-11-14T10:04:47;96802.00;;;7.65;100.00
29169;BME280;16219;42.864;23.360;2022-11-14T10:07:45;96794.38;;;7.64;100.00
29169;BME280;16219;42.864;23.360;2022-11-14T10:10:49;96787.53;;;7.73;100.00
29169;BME280;16219;42.864;23.360;2022-11-14T10:13:56;96772.09;;;7.56;100.00
29169;BME280;16219;42.864;23.360;2022-11-14T10:16:53;96771.28;;;7.66;100.00
29169;BME280;16219;42.864;23.360;2022-11-14T10:19:46;96763.88;;;7.78;100.00
29169;BME280;16219;42.864;23.360;2022-11-14T10:22:48;96762.34;;;7.67;100.00
29169;BME280;16219;42.864;23.360;2022-11-14T10:25:54;96761.84;;;7.55;100.00
29169;BME280;16219;42.864;23.360;2022-11-14T10:28:47;96756.09;;;7.53;100.00
29169;BME280;16219;42.864;23.360;2022-11-14T10:31:44;96751.34;;;7.55;100.00
29169;BME280;16219;42.864;23.360;2022-11-14T10:34:41;96750.00;;;7.62;100.00
29169;BME280;16219;42.864;23.360;2022-11-14T10:37:34;96742.38;;;7.71;100.00
29169;BME280;16219;42.864;23.360;2022-11-14T10:40:25;96737.63;;;7.78;100.00
29169;BME280;16219;42.864;23.360;2022-11-14T10:43:20;96732.34;;;7.83;100.00
29169;BME280;16219;42.864;23.360;2022-11-14T10:46:11;96726.00;;;7.94;100.00
29169;BME280;16219;42.864;23.360;2022-11-14T10:48:58;96728.25;;;8.11;100.00
29169;BME280;16219;42.864;23.360;2022-11-14T10:51:46;96719.38;;;8.07;100.00
29169;BME280;16219;42.864;23.360;2022-11-14T10:54:38;96717.47;;;8.18;100.00
29169;BME280;16219;42.864;23.360;2022-11-14T10:57:29;96714.22;;;8.31;100.00
29169;BME280;16219;42.864;23.360;2022-11-14T11:00:16;96704.22;;;8.38;100.00
29169;BME280;16219;42.864;23.360;2022-11-14T11:03:02;96701.47;;;8.54;100.00
29169;BME280;16219;42.864;23.360;2022-11-14T11:05:49;96695.63;;;8.67;100.00
29169;BME280;16219;42.864;23.360;2022-11-14T11:08:40;96699.22;;;8.76;100.00
29169;BME280;16219;42.864;23.360;2022-11-14T11:11:53;96699.03;;;8.67;100.00
29169;BME280;16219;42.864;23.360;2022-11-14T11:14:41;96692.94;;;8.72;100.00
29169;BME280;16219;42.864;23.360;2022-11-14T11:17:27;96692.78;;;8.92;100.00
29169;BME280;16219;42.864;23.360;2022-11-14T11:20:31;96692.84;;;9.11;100.00
29169;BME280;16219;42.864;23.360;2022-11-14T11:23:19;96680.09;;;9.23;100.00
29169;BME280;16219;42.864;23.360;2022-11-14T11:26:15;96684.53;;;9.28;100.00
29169;BME280;16219;42.864;23.360;2022-11-14T11:29:04;96681.44;;;9.21;100.00
29169;BME280;16219;42.864;23.360;2022-11-14T11:31:52;96675.66;;;9.19;100.00
29169;BME280;16219;42.864;23.360;2022-11-14T11:34:38;96679.81;;;9.25;100.00
29169;BME280;16219;42.864;23.360;2022-11-14T11:37:26;96678.75;;;9.26;100.00
29169;BME280;16219;42.864;23.360;2022-11-14T11:40:16;96671.28;;;9.33;100.00
29169;BME280;16219;42.864;23.360;2022-11-14T11:43:07;96666.47;;;9.40;100.00
29169;BME280;16219;42.864;23.360;2022-11-14T11:45:56;96665.66;;;9.45;100.00
29169;BME280;16219;42.864;23.360;2022-11-14T11:48:48;96666.13;;;9.47;100.00
29169;BME280;16219;42.864;23.360;2022-11-14T11:51:44;96660.31;;;9.50;100.00
29169;BME280;16219;42.864;23.360;2022-11-14T11:54:32;96650.06;;;9.48;100.00
29169;BME280;16219;42.864;23.360;2022-11-14T11:57:27;96652.63;;;9.54;100.00
29169;BME280;16219;42.864;23.360;2022-11-14T12:00:17;96637.31;;;9.56;100.00
29169;BME280;16219;42.864;23.360;2022-11-14T12:03:08;96640.03;;;9.50;100.00
29169;BME280;16219;42.864;23.360;2022-11-14T12:06:04;96632.19;;;9.45;100.00
29169;BME280;16219;42.864;23.360;2022-11-14T12:09:05;96621.50;;;9.56;100.00
29169;BME280;16219;42.864;23.360;2022-11-14T12:11:54;96631.72;;;9.62;100.00
29169;BME280;16219;42.864;23.360;2022-11-14T12:14:51;96625.59;;;9.67;100.00
29169;BME280;16219;42.864;23.360;2022-11-14T12:18:17;96633.38;;;9.77;100.00
29169;BME280;16219;42.864;23.360;2022-11-14T12:21:12;96627.75;;;9.84;100.00
29169;BME280;16219;42.864;23.360;2022-11-14T12:24:40;96622.69;;;9.87;100.00
29169;BME280;16219;42.864;23.360;2022-11-14T12:27:47;96616.72;;;9.82;100.00
29169;BME280;16219;42.864;23.360;2022-11-14T12:30:40;96618.06;;;9.98;100.00
29169;BME280;16219;42.864;23.360;2022-11-14T12:33:33;96613.13;;;10.10;100.00
29169;BME280;16219;42.864;23.360;2022-11-14T12:36:26;96609.78;;;10.05;100.00
29169;BME280;16219;42.864;23.360;2022-11-14T12:39:21;96604.44;;;10.10;100.00
29169;BME280;16219;42.864;23.360;2022-11-14T12:42:10;96595.97;;;10.13;100.00
29169;BME280;16219;42.864;23.360;2022-11-14T12:44:58;96598.09;;;10.11;100.00
29169;BME280;16219;42.864;23.360;2022-11-14T12:48:20;96603.69;;;10.28;100.00
29169;BME280;16219;42.864;23.360;2022-11-14T12:54:45;96602.16;;;10.41;100.00
29169;BME280;16219;42.864;23.360;2022-11-14T12:57:37;96602.94;;;10.41;100.00
29169;BME280;16219;42.864;23.360;2022-11-14T13:00:35;96596.16;;;10.35;100.00
29169;BME280;16219;42.864;23.360;2022-11-14T13:03:35;96593.44;;;10.40;100.00
29169;BME280;16219;42.864;23.360;2022-11-14T13:06:25;96589.66;;;10.46;100.00
29169;BME280;16219;42.864;23.360;2022-11-14T13:09:37;96585.69;;;10.63;100.00
29169;BME280;16219;42.864;23.360;2022-11-14T13:12:30;96582.56;;;10.61;100.00
29169;BME280;16219;42.864;23.360;2022-11-14T13:15:46;96573.69;;;10.70;100.00
29169;BME280;16219;42.864;23.360;2022-11-14T13:18:52;96578.00;;;10.80;100.00
29169;BME280;16219;42.864;23.360;2022-11-14T13:22:35;96577.44;;;10.83;100.00
29169;BME280;16219;42.864;23.360;2022-11-14T13:25:22;96570.97;;;10.75;100.00
29169;BME280;16219;42.864;23.360;2022-11-14T13:28:44;96573.00;;;10.65;100.00
29169;BME280;16219;42.864;23.360;2022-11-14T13:31:50;96567.31;;;10.58;100.00
29169;BME280;16219;42.864;23.360;2022-11-14T13:34:45;96560.06;;;10.49;100.00
29169;BME280;16219;42.864;23.360;2022-11-14T13:37:45;96552.63;;;10.38;100.00
29169;BME280;16219;42.864;23.360;2022-11-14T13:40:41;96566.88;;;10.37;100.00
29169;BME280;16219;42.864;23.360;2022-11-14T13:43:33;96561.91;;;10.16;100.00
29169;BME280;16219;42.864;23.360;2022-11-14T13:46:36;96555.00;;;10.01;100.00
29169;BME280;16219;42.864;23.360;2022-11-14T13:49:50;96562.00;;;9.92;100.00
29169;BME280;16219;42.864;23.360;2022-11-14T13:52:40;96558.38;;;9.88;100.00
29169;BME280;16219;42.864;23.360;2022-11-14T13:55:33;96550.47;;;9.88;100.00
29169;BME280;16219;42.864;23.360;2022-11-14T13:58:30;96556.16;;;9.95;100.00
29169;BME280;16219;42.864;23.360;2022-11-14T14:01:28;96552.63;;;9.86;100.00
29169;BME280;16219;42.864;23.360;2022-11-14T14:04:33;96549.25;;;9.81;100.00
29169;BME280;16219;42.864;23.360;2022-11-14T14:07:31;96541.38;;;9.62;100.00
29169;BME280;16219;42.864;23.360;2022-11-14T14:10:26;96547.97;;;9.59;100.00
29169;BME280;16219;42.864;23.360;2022-11-14T14:13:25;96545.06;;;9.61;100.00
29169;BME280;16219;42.864;23.360;2022-11-14T14:16:21;96541.16;;;9.58;100.00
29169;BME280;16219;42.864;23.360;2022-11-14T14:19:15;96542.94;;;9.44;100.00
29169;BME280;16219;42.864;23.360;2022-11-14T14:22:08;96545.84;;;9.42;100.00
29169;BME280;16219;42.864;23.360;2022-11-14T14:25:02;96544.91;;;9.33;100.00
29169;BME280;16219;42.864;23.360;2022-11-14T14:27:58;96539.94;;;9.08;100.00
29169;BME280;16219;42.864;23.360;2022-11-14T14:31:08;96533.41;;;9.05;100.00
29169;BME280;16219;42.864;23.360;2022-11-14T14:33:55;96533.19;;;9.01;100.00
29169;BME280;16219;42.864;23.360;2022-11-14T14:36:48;96534.88;;;8.92;100.00
29169;BME280;16219;42.864;23.360;2022-11-14T14:39:35;96532.03;;;8.89;100.00
29169;BME280;16219;42.864;23.360;2022-11-14T14:42:21;96531.03;;;8.85;100.00
29169;BME280;16219;42.864;23.360;2022-11-14T14:45:13;96534.50;;;8.80;100.00
29169;BME280;16219;42.864;23.360;2022-11-14T14:48:02;96537.22;;;8.70;100.00
29169;BME280;16219;42.864;23.360;2022-11-14T14:50:50;96534.63;;;8.65;100.00